sensor_id;sensor_type;location;lat;lon;timestamp;P1;durP1;ratioP1;P2;durP2;ratioP2
819;SDS011;392;48.838;2.322;2023-02-28T00:01:26;12.50;;;11.40;;
819;SDS011;392;48.838;2.322;2023-02-28T00:03:53;12.00;;;10.80;;
819;SDS011;392;48.838;2.322;2023-02-28T00:06:21;13.10;;;12.00;;
819;SDS011;392;48.838;2.322;2023-02-28T00:08:49;12.68;;;11.43;;
819;SDS011;392;48.838;2.322;2023-02-28T00:11:18;12.45;;;11.25;;
819;SDS011;392;48.838;2.322;2023-02-28T00:13:46;12.43;;;11.27;;
819;SDS011;392;48.838;2.322;2023-02-28T00:16:14;12.00;;;10.93;;
819;SDS011;392;48.838;2.322;2023-02-28T00:18:43;12.63;;;11.50;;
819;SDS011;392;48.838;2.322;2023-02-28T00:21:12;12.10;;;11.10;;
819;SDS011;392;48.838;2.322;2023-02-28T00:23:40;11.93;;;10.93;;
819;SDS011;392;48.838;2.322;2023-02-28T00:26:07;11.68;;;10.70;;
819;SDS011;392;48.838;2.322;2023-02-28T00:28:37;12.32;;;11.23;;
819;SDS011;392;48.838;2.322;2023-02-28T00:31:04;12.50;;;11.50;;
819;SDS011;392;48.838;2.322;2023-02-28T00:33:32;10.90;;;10.00;;
819;SDS011;392;48.838;2.322;2023-02-28T00:36:03;10.98;;;10.07;;
819;SDS011;392;48.838;2.322;2023-02-28T00:38:35;12.10;;;11.10;;
819;SDS011;392;48.838;2.322;2023-02-28T00:41:03;12.05;;;11.05;;
819;SDS011;392;48.838;2.322;2023-02-28T00:43:32;11.82;;;10.73;;
819;SDS011;392;48.838;2.322;2023-02-28T00:46:02;12.75;;;11.45;;
819;SDS011;392;48.838;2.322;2023-02-28T00:48:30;11.60;;;10.60;;
819;SDS011;392;48.838;2.322;2023-02-28T00:50:58;12.45;;;11.45;;
819;SDS011;392;48.838;2.322;2023-02-28T00:53:26;11.57;;;10.48;;
819;SDS011;392;48.838;2.322;2023-02-28T00:55:56;11.25;;;10.35;;
819;SDS011;392;48.838;2.322;2023-02-28T00:58:25;11.60;;;10.50;;
819;SDS011;392;48.838;2.322;2023-02-28T01:00:52;11.23;;;10.23;;
819;SDS011;392;48.838;2.322;2023-02-28T01:03:21;10.70;;;9.70;;
819;SDS011;392;48.838;2.322;2023-02-28T01:05:49;10.63;;;9.63;;
819;SDS011;392;48.838;2.322;2023-02-28T01:08:19;11.13;;;10.20;;
819;SDS011;392;48.838;2.322;2023-02-28T01:10:46;11.52;;;10.52;;
819;SDS011;392;48.838;2.322;2023-02-28T01:13:14;11.00;;;9.90;;
819;SDS011;392;48.838;2.322;2023-02-28T01:15:43;10.95;;;9.95;;
819;SDS011;392;48.838;2.322;2023-02-28T01:18:16;11.98;;;10.60;;
819;SDS011;392;48.838;2.322;2023-02-28T01:20:45;11.57;;;10.48;;
819;SDS011;392;48.838;2.322;2023-02-28T01:23:13;10.50;;;9.57;;
819;SDS011;392;48.838;2.322;2023-02-28T01:25:40;10.20;;;9.32;;
819;SDS011;392;48.838;2.322;2023-02-28T01:28:08;10.05;;;9.27;;
819;SDS011;392;48.838;2.322;2023-02-28T01:30:35;10.05;;;9.15;;
819;SDS011;392;48.838;2.322;2023-02-28T01:33:02;10.00;;;9.10;;
819;SDS011;392;48.838;2.322;2023-02-28T01:35:31;10.93;;;9.88;;
819;SDS011;392;48.838;2.322;2023-02-28T01:38:01;10.55;;;9.57;;
819;SDS011;392;48.838;2.322;2023-02-28T01:40:29;10.07;;;9.27;;
819;SDS011;392;48.838;2.322;2023-02-28T01:42:57;10.27;;;9.45;;
819;SDS011;392;48.838;2.322;2023-02-28T01:45:25;10.50;;;9.50;;
819;SDS011;392;48.838;2.322;2023-02-28T01:47:56;9.55;;;8.75;;
819;SDS011;392;48.838;2.322;2023-02-28T01:50:29;10.88;;;9.88;;
819;SDS011;392;48.838;2.322;2023-02-28T01:53:04;10.85;;;9.88;;
819;SDS011;392;48.838;2.322;2023-02-28T01:55:37;9.95;;;9.10;;
819;SDS011;392;48.838;2.322;2023-02-28T01:58:06;9.80;;;8.98;;
819;SDS011;392;48.838;2.322;2023-02-28T02:00:35;10.60;;;9.50;;
819;SDS011;392;48.838;2.322;2023-02-28T02:03:05;10.40;;;9.50;;
819;SDS011;392;48.838;2.322;2023-02-28T02:05:35;10.35;;;9.55;;
819;SDS011;392;48.838;2.322;2023-02-28T02:08:07;9.98;;;9.18;;
819;SDS011;392;48.838;2.322;2023-02-28T02:10:39;10.75;;;9.85;;
819;SDS011;392;48.838;2.322;2023-02-28T02:13:16;10.23;;;9.30;;
819;SDS011;392;48.838;2.322;2023-02-28T02:16:08;10.25;;;9.32;;
819;SDS011;392;48.838;2.322;2023-02-28T02:18:47;9.32;;;8.55;;
819;SDS011;392;48.838;2.322;2023-02-28T02:21:34;10.20;;;9.30;;
819;SDS011;392;48.838;2.322;2023-02-28T02:27:40;10.30;;;9.40;;
819;SDS011;392;48.838;2.322;2023-02-28T02:31:06;10.38;;;9.32;;
819;SDS011;392;48.838;2.322;2023-02-28T02:34:10;9.35;;;8.55;;
819;SDS011;392;48.838;2.322;2023-02-28T02:37:21;9.75;;;8.85;;
819;SDS011;392;48.838;2.322;2023-02-28T02:40:00;9.02;;;8.10;;
819;SDS011;392;48.838;2.322;2023-02-28T02:42:39;10.40;;;9.50;;
819;SDS011;392;48.838;2.322;2023-02-28T02:45:12;9.30;;;8.57;;
819;SDS011;392;48.838;2.322;2023-02-28T02:47:45;9.93;;;9.02;;
819;SDS011;392;48.838;2.322;2023-02-28T02:50:17;9.65;;;8.85;;
819;SDS011;392;48.838;2.322;2023-02-28T02:52:51;10.23;;;9.23;;
819;SDS011;392;48.838;2.322;2023-02-28T02:55:23;9.27;;;8.48;;
819;SDS011;392;48.838;2.322;2023-02-28T02:57:52;9.55;;;8.75;;
819;SDS011;392;48.838;2.322;2023-02-28T03:00:25;8.98;;;8.13;;
819;SDS011;392;48.838;2.322;2023-02-28T03:02:57;9.50;;;8.68;;
819;SDS011;392;48.838;2.322;2023-02-28T03:05:29;9.65;;;8.85;;
819;SDS011;392;48.838;2.322;2023-02-28T03:08:03;8.52;;;7.82;;
819;SDS011;392;48.838;2.322;2023-02-28T03:10:33;9.05;;;8.35;;
819;SDS011;392;48.838;2.322;2023-02-28T03:13:07;8.40;;;7.60;;
819;SDS011;392;48.838;2.322;2023-02-28T03:16:10;8.80;;;8.00;;
819;SDS011;392;48.838;2.322;2023-02-28T03:19:02;8.48;;;7.68;;
819;SDS011;392;48.838;2.322;2023-02-28T03:21:45;8.30;;;7.60;;
819;SDS011;392;48.838;2.322;2023-02-28T03:24:21;9.60;;;8.80;;
819;SDS011;392;48.838;2.322;2023-02-28T03:26:58;8.90;;;8.13;;
819;SDS011;392;48.838;2.322;2023-02-28T03:29:35;8.55;;;7.82;;
819;SDS011;392;48.838;2.322;2023-02-28T03:32:08;8.40;;;7.80;;
819;SDS011;392;48.838;2.322;2023-02-28T03:34:48;8.90;;;8.00;;
819;SDS011;392;48.838;2.322;2023-02-28T03:37:22;8.65;;;7.75;;
819;SDS011;392;48.838;2.322;2023-02-28T03:39:53;8.23;;;7.43;;
819;SDS011;392;48.838;2.322;2023-02-28T03:42:25;7.97;;;7.20;;
819;SDS011;392;48.838;2.322;2023-02-28T03:44:56;8.13;;;7.43;;
819;SDS011;392;48.838;2.322;2023-02-28T03:47:29;8.23;;;7.53;;
819;SDS011;392;48.838;2.322;2023-02-28T03:50:03;7.65;;;7.05;;
819;SDS011;392;48.838;2.322;2023-02-28T03:52:38;8.10;;;7.30;;
819;SDS011;392;48.838;2.322;2023-02-28T03:55:10;7.85;;;7.25;;
819;SDS011;392;48.838;2.322;2023-02-28T03:57:40;8.38;;;7.63;;
819;SDS011;392;48.838;2.322;2023-02-28T04:00:18;7.90;;;7.30;;
819;SDS011;392;48.838;2.322;2023-02-28T04:02:53;7.63;;;6.93;;
819;SDS011;392;48.838;2.322;2023-02-28T04:05:21;8.60;;;7.80;;
819;SDS011;392;48.838;2.322;2023-02-28T04:07:51;8.20;;;7.50;;
819;SDS011;392;48.838;2.322;2023-02-28T04:10:19;8.13;;;7.30;;
819;SDS011;392;48.838;2.322;2023-02-28T04:12:46;7.60;;;6.90;;
819;SDS011;392;48.838;2.322;2023-02-28T04:15:14;7.68;;;7.00;;
819;SDS011;392;48.838;2.322;2023-02-28T04:17:41;8.30;;;7.60;;
819;SDS011;392;48.838;2.322;2023-02-28T04:20:09;8.70;;;7.82;;
819;SDS011;392;48.838;2.322;2023-02-28T04:22:37;8.30;;;7.60;;
819;SDS011;392;48.838;2.322;2023-02-28T04:25:07;8.23;;;7.43;;
819;SDS011;392;48.838;2.322;2023-02-28T04:27:34;8.68;;;7.72;;
819;SDS011;392;48.838;2.322;2023-02-28T04:30:02;8.07;;;7.40;;
819;SDS011;392;48.838;2.322;2023-02-28T04:32:30;7.70;;;7.03;;
819;SDS011;392;48.838;2.322;2023-02-28T04:34:58;8.02;;;7.30;;
819;SDS011;392;48.838;2.322;2023-02-28T04:37:25;9.55;;;8.65;;
819;SDS011;392;48.838;2.322;2023-02-28T04:39:54;8.70;;;7.90;;
819;SDS011;392;48.838;2.322;2023-02-28T04:42:23;7.57;;;6.97;;
819;SDS011;392;48.838;2.322;2023-02-28T04:44:50;8.23;;;7.53;;
819;SDS011;392;48.838;2.322;2023-02-28T04:47:18;8.30;;;7.70;;
819;SDS011;392;48.838;2.322;2023-02-28T04:49:45;8.77;;;7.97;;
819;SDS011;392;48.838;2.322;2023-02-28T04:52:12;8.63;;;7.85;;
819;SDS011;392;48.838;2.322;2023-02-28T04:54:40;8.82;;;8.02;;
819;SDS011;392;48.838;2.322;2023-02-28T04:57:07;8.52;;;7.78;;
819;SDS011;392;48.838;2.322;2023-02-28T04:59:36;8.43;;;7.72;;
819;SDS011;392;48.838;2.322;2023-02-28T05:02:03;8.70;;;8.00;;
819;SDS011;392;48.838;2.322;2023-02-28T05:04:32;8.70;;;8.00;;
819;SDS011;392;48.838;2.322;2023-02-28T05:07:00;8.88;;;8.18;;
819;SDS011;392;48.838;2.322;2023-02-28T05:09:28;8.70;;;7.80;;
819;SDS011;392;48.838;2.322;2023-02-28T05:11:56;9.23;;;7.90;;
819;SDS011;392;48.838;2.322;2023-02-28T05:14:23;8.00;;;7.30;;
819;SDS011;392;48.838;2.322;2023-02-28T05:16:52;8.43;;;7.35;;
819;SDS011;392;48.838;2.322;2023-02-28T05:19:20;8.32;;;7.63;;
819;SDS011;392;48.838;2.322;2023-02-28T05:21:51;8.23;;;7.53;;
819;SDS011;392;48.838;2.322;2023-02-28T05:24:20;8.95;;;8.25;;
819;SDS011;392;48.838;2.322;2023-02-28T05:26:49;8.82;;;7.93;;
819;SDS011;392;48.838;2.322;2023-02-28T05:29:19;10.48;;;8.30;;
819;SDS011;392;48.838;2.322;2023-02-28T05:31:47;8.82;;;7.90;;
819;SDS011;392;48.838;2.322;2023-02-28T05:34:16;8.30;;;7.60;;
819;SDS011;392;48.838;2.322;2023-02-28T05:36:44;9.95;;;8.10;;
819;SDS011;392;48.838;2.322;2023-02-28T05:39:11;8.80;;;7.93;;
819;SDS011;392;48.838;2.322;2023-02-28T05:41:40;9.80;;;8.80;;
819;SDS011;392;48.838;2.322;2023-02-28T05:44:07;9.52;;;8.73;;
819;SDS011;392;48.838;2.322;2023-02-28T05:46:35;9.43;;;8.52;;
819;SDS011;392;48.838;2.322;2023-02-28T05:49:03;9.70;;;8.70;;
819;SDS011;392;48.838;2.322;2023-02-28T05:51:32;9.32;;;8.43;;
819;SDS011;392;48.838;2.322;2023-02-28T05:54:01;9.68;;;8.88;;
819;SDS011;392;48.838;2.322;2023-02-28T05:56:29;9.93;;;8.98;;
819;SDS011;392;48.838;2.322;2023-02-28T05:58:56;9.80;;;8.90;;
819;SDS011;392;48.838;2.322;2023-02-28T06:01:26;9.35;;;8.55;;
819;SDS011;392;48.838;2.322;2023-02-28T06:04:00;12.10;;;9.50;;
819;SDS011;392;48.838;2.322;2023-02-28T06:06:29;12.30;;;11.20;;
819;SDS011;392;48.838;2.322;2023-02-28T06:08:58;12.23;;;11.13;;
819;SDS011;392;48.838;2.322;2023-02-28T06:11:25;12.32;;;11.13;;
819;SDS011;392;48.838;2.322;2023-02-28T06:13:54;13.10;;;11.75;;
819;SDS011;392;48.838;2.322;2023-02-28T06:16:22;14.43;;;12.90;;
819;SDS011;392;48.838;2.322;2023-02-28T06:18:49;14.25;;;12.80;;
819;SDS011;392;48.838;2.322;2023-02-28T06:21:18;14.02;;;12.52;;
819;SDS011;392;48.838;2.322;2023-02-28T06:23:45;14.23;;;11.90;;
819;SDS011;392;48.838;2.322;2023-02-28T06:26:14;15.27;;;13.77;;
819;SDS011;392;48.838;2.322;2023-02-28T06:28:41;15.05;;;13.55;;
819;SDS011;392;48.838;2.322;2023-02-28T06:31:09;14.43;;;12.98;;
819;SDS011;392;48.838;2.322;2023-02-28T06:33:38;14.50;;;13.10;;
819;SDS011;392;48.838;2.322;2023-02-28T06:36:07;14.90;;;13.30;;
819;SDS011;392;48.838;2.322;2023-02-28T06:38:35;15.25;;;13.82;;
819;SDS011;392;48.838;2.322;2023-02-28T06:41:03;17.05;;;14.15;;
819;SDS011;392;48.838;2.322;2023-02-28T06:43:34;16.35;;;14.75;;
819;SDS011;392;48.838;2.322;2023-02-28T06:46:05;18.70;;;16.20;;
819;SDS011;392;48.838;2.322;2023-02-28T06:48:34;16.48;;;14.77;;
819;SDS011;392;48.838;2.322;2023-02-28T06:51:03;16.48;;;14.77;;
819;SDS011;392;48.838;2.322;2023-02-28T06:53:32;17.05;;;15.30;;
819;SDS011;392;48.838;2.322;2023-02-28T06:56:03;17.42;;;15.63;;
819;SDS011;392;48.838;2.322;2023-02-28T06:58:33;17.50;;;15.80;;
819;SDS011;392;48.838;2.322;2023-02-28T07:01:01;18.08;;;16.27;;
819;SDS011;392;48.838;2.322;2023-02-28T07:03:29;17.50;;;15.70;;
819;SDS011;392;48.838;2.322;2023-02-28T07:05:57;18.40;;;16.50;;
819;SDS011;392;48.838;2.322;2023-02-28T07:08:25;19.48;;;17.50;;
819;SDS011;392;48.838;2.322;2023-02-28T07:10:53;19.33;;;17.40;;
819;SDS011;392;48.838;2.322;2023-02-28T07:13:21;19.55;;;17.35;;
819;SDS011;392;48.838;2.322;2023-02-28T07:15:54;19.15;;;17.30;;
819;SDS011;392;48.838;2.322;2023-02-28T07:18:23;20.50;;;18.38;;
819;SDS011;392;48.838;2.322;2023-02-28T07:20:51;21.40;;;18.70;;
819;SDS011;392;48.838;2.322;2023-02-28T07:23:19;21.27;;;19.27;;
819;SDS011;392;48.838;2.322;2023-02-28T07:25:47;20.50;;;18.40;;
819;SDS011;392;48.838;2.322;2023-02-28T07:28:15;21.35;;;19.25;;
819;SDS011;392;48.838;2.322;2023-02-28T07:30:43;21.00;;;19.00;;
819;SDS011;392;48.838;2.322;2023-02-28T07:33:12;20.98;;;18.80;;
819;SDS011;392;48.838;2.322;2023-02-28T07:35:39;20.58;;;18.50;;
819;SDS011;392;48.838;2.322;2023-02-28T07:38:06;20.55;;;18.42;;
819;SDS011;392;48.838;2.322;2023-02-28T07:40:34;20.55;;;17.88;;
819;SDS011;392;48.838;2.322;2023-02-28T07:43:02;20.75;;;18.63;;
819;SDS011;392;48.838;2.322;2023-02-28T07:45:31;21.10;;;18.80;;
819;SDS011;392;48.838;2.322;2023-02-28T07:47:59;20.67;;;18.85;;
819;SDS011;392;48.838;2.322;2023-02-28T07:50:29;21.70;;;19.70;;
819;SDS011;392;48.838;2.322;2023-02-28T07:52:57;19.33;;;17.38;;
819;SDS011;392;48.838;2.322;2023-02-28T07:55:24;19.85;;;17.95;;
819;SDS011;392;48.838;2.322;2023-02-28T07:57:51;19.63;;;17.83;;
819;SDS011;392;48.838;2.322;2023-02-28T08:00:19;20.40;;;18.30;;
819;SDS011;392;48.838;2.322;2023-02-28T08:02:47;20.80;;;18.83;;
819;SDS011;392;48.838;2.322;2023-02-28T08:05:14;20.65;;;18.65;;
819;SDS011;392;48.838;2.322;2023-02-28T08:07:43;21.38;;;19.08;;
819;SDS011;392;48.838;2.322;2023-02-28T08:10:12;20.92;;;18.55;;
819;SDS011;392;48.838;2.322;2023-02-28T08:12:40;19.70;;;17.73;;
819;SDS011;392;48.838;2.322;2023-02-28T08:15:08;20.10;;;18.20;;
819;SDS011;392;48.838;2.322;2023-02-28T08:17:36;21.13;;;19.08;;
819;SDS011;392;48.838;2.322;2023-02-28T08:20:03;21.15;;;19.08;;
819;SDS011;392;48.838;2.322;2023-02-28T08:22:32;22.13;;;19.98;;
819;SDS011;392;48.838;2.322;2023-02-28T08:25:01;20.90;;;18.63;;
819;SDS011;392;48.838;2.322;2023-02-28T08:27:29;19.85;;;17.85;;
819;SDS011;392;48.838;2.322;2023-02-28T08:29:56;20.23;;;18.17;;
819;SDS011;392;48.838;2.322;2023-02-28T08:32:24;19.55;;;17.60;;
819;SDS011;392;48.838;2.322;2023-02-28T08:34:51;18.85;;;17.08;;
819;SDS011;392;48.838;2.322;2023-02-28T08:37:19;18.42;;;16.70;;
819;SDS011;392;48.838;2.322;2023-02-28T08:39:46;19.38;;;17.40;;
819;SDS011;392;48.838;2.322;2023-02-28T08:42:15;18.95;;;17.05;;
819;SDS011;392;48.838;2.322;2023-02-28T08:44:42;17.92;;;16.35;;
819;SDS011;392;48.838;2.322;2023-02-28T08:47:09;19.63;;;17.83;;
819;SDS011;392;48.838;2.322;2023-02-28T08:49:37;18.77;;;16.52;;
819;SDS011;392;48.838;2.322;2023-02-28T08:52:04;20.75;;;18.00;;
819;SDS011;392;48.838;2.322;2023-02-28T08:54:32;18.63;;;16.73;;
819;SDS011;392;48.838;2.322;2023-02-28T08:56:59;17.50;;;15.70;;
819;SDS011;392;48.838;2.322;2023-02-28T08:59:28;18.58;;;16.58;;
819;SDS011;392;48.838;2.322;2023-02-28T09:01:56;19.08;;;17.13;;
819;SDS011;392;48.838;2.322;2023-02-28T09:04:24;22.23;;;17.83;;
819;SDS011;392;48.838;2.322;2023-02-28T09:06:51;18.13;;;16.20;;
819;SDS011;392;48.838;2.322;2023-02-28T09:09:19;21.10;;;16.85;;
819;SDS011;392;48.838;2.322;2023-02-28T09:11:46;18.13;;;16.15;;
819;SDS011;392;48.838;2.322;2023-02-28T09:14:13;18.35;;;15.88;;
819;SDS011;392;48.838;2.322;2023-02-28T09:16:44;18.88;;;16.98;;
819;SDS011;392;48.838;2.322;2023-02-28T09:19:11;16.92;;;15.23;;
819;SDS011;392;48.838;2.322;2023-02-28T09:21:40;15.70;;;14.05;;
819;SDS011;392;48.838;2.322;2023-02-28T09:24:07;22.38;;;15.05;;
819;SDS011;392;48.838;2.322;2023-02-28T09:26:37;17.23;;;15.43;;
819;SDS011;392;48.838;2.322;2023-02-28T09:29:04;15.93;;;14.40;;
819;SDS011;392;48.838;2.322;2023-02-28T09:31:32;14.88;;;13.20;;
819;SDS011;392;48.838;2.322;2023-02-28T09:34:01;15.57;;;14.13;;
819;SDS011;392;48.838;2.322;2023-02-28T09:36:28;14.85;;;13.23;;
819;SDS011;392;48.838;2.322;2023-02-28T09:38:56;15.95;;;14.18;;
819;SDS011;392;48.838;2.322;2023-02-28T09:41:24;14.82;;;13.32;;
819;SDS011;392;48.838;2.322;2023-02-28T09:43:56;15.52;;;14.02;;
819;SDS011;392;48.838;2.322;2023-02-28T09:46:30;15.13;;;13.63;;
819;SDS011;392;48.838;2.322;2023-02-28T09:49:05;15.15;;;13.70;;
819;SDS011;392;48.838;2.322;2023-02-28T09:51:41;16.40;;;14.68;;
819;SDS011;392;48.838;2.322;2023-02-28T09:54:17;14.57;;;13.18;;
819;SDS011;392;48.838;2.322;2023-02-28T09:56:48;15.23;;;13.70;;
819;SDS011;392;48.838;2.322;2023-02-28T09:59:24;15.27;;;13.75;;
819;SDS011;392;48.838;2.322;2023-02-28T10:02:10;14.63;;;13.23;;
819;SDS011;392;48.838;2.322;2023-02-28T10:04:50;16.10;;;13.75;;
819;SDS011;392;48.838;2.322;2023-02-28T10:07:27;15.30;;;13.90;;
819;SDS011;392;48.838;2.322;2023-02-28T10:10:18;15.23;;;13.60;;
819;SDS011;392;48.838;2.322;2023-02-28T10:12:51;15.57;;;13.98;;
819;SDS011;392;48.838;2.322;2023-02-28T10:15:22;14.38;;;12.98;;
819;SDS011;392;48.838;2.322;2023-02-28T10:17:53;13.50;;;12.25;;
819;SDS011;392;48.838;2.322;2023-02-28T10:20:26;13.48;;;12.27;;
819;SDS011;392;48.838;2.322;2023-02-28T10:22:57;13.70;;;12.45;;
819;SDS011;392;48.838;2.322;2023-02-28T10:25:33;14.23;;;12.68;;
819;SDS011;392;48.838;2.322;2023-02-28T10:28:07;13.60;;;12.30;;
819;SDS011;392;48.838;2.322;2023-02-28T10:30:39;12.10;;;10.97;;
819;SDS011;392;48.838;2.322;2023-02-28T10:33:16;12.77;;;11.48;;
819;SDS011;392;48.838;2.322;2023-02-28T10:35:50;11.90;;;10.68;;
819;SDS011;392;48.838;2.322;2023-02-28T10:38:20;11.55;;;10.40;;
819;SDS011;392;48.838;2.322;2023-02-28T10:40:50;9.95;;;9.00;;
819;SDS011;392;48.838;2.322;2023-02-28T10:43:21;10.15;;;9.35;;
819;SDS011;392;48.838;2.322;2023-02-28T10:48:41;9.70;;;8.90;;
819;SDS011;392;48.838;2.322;2023-02-28T10:51:12;11.95;;;10.90;;
819;SDS011;392;48.838;2.322;2023-02-28T10:53:48;11.90;;;10.90;;
819;SDS011;392;48.838;2.322;2023-02-28T10:56:19;10.93;;;9.80;;
819;SDS011;392;48.838;2.322;2023-02-28T10:58:49;9.88;;;9.05;;
819;SDS011;392;48.838;2.322;2023-02-28T11:01:23;11.10;;;10.00;;
819;SDS011;392;48.838;2.322;2023-02-28T11:04:05;10.82;;;9.88;;
819;SDS011;392;48.838;2.322;2023-02-28T11:06:51;10.50;;;9.52;;
819;SDS011;392;48.838;2.322;2023-02-28T11:09:27;8.95;;;8.20;;
819;SDS011;392;48.838;2.322;2023-02-28T11:11:59;8.50;;;7.80;;
819;SDS011;392;48.838;2.322;2023-02-28T11:14:28;8.18;;;7.57;;
819;SDS011;392;48.838;2.322;2023-02-28T11:16:58;7.80;;;7.10;;
819;SDS011;392;48.838;2.322;2023-02-28T11:19:38;8.10;;;7.50;;
819;SDS011;392;48.838;2.322;2023-02-28T11:22:18;7.80;;;7.25;;
819;SDS011;392;48.838;2.322;2023-02-28T11:24:50;8.63;;;7.83;;
819;SDS011;392;48.838;2.322;2023-02-28T11:27:45;8.23;;;7.50;;
819;SDS011;392;48.838;2.322;2023-02-28T11:30:29;9.00;;;8.30;;
819;SDS011;392;48.838;2.322;2023-02-28T11:33:00;9.27;;;8.57;;
819;SDS011;392;48.838;2.322;2023-02-28T11:35:48;9.30;;;8.50;;
819;SDS011;392;48.838;2.322;2023-02-28T11:38:19;8.97;;;8.27;;
819;SDS011;392;48.838;2.322;2023-02-28T11:40:48;9.63;;;8.80;;
819;SDS011;392;48.838;2.322;2023-02-28T11:43:30;10.47;;;9.50;;
819;SDS011;392;48.838;2.322;2023-02-28T11:46:18;10.37;;;9.47;;
819;SDS011;392;48.838;2.322;2023-02-28T11:48:55;10.40;;;9.50;;
819;SDS011;392;48.838;2.322;2023-02-28T11:51:32;9.93;;;9.03;;
819;SDS011;392;48.838;2.322;2023-02-28T11:54:17;10.33;;;9.43;;
819;SDS011;392;48.838;2.322;2023-02-28T11:57:00;9.97;;;9.07;;
819;SDS011;392;48.838;2.322;2023-02-28T11:59:43;9.70;;;8.80;;
819;SDS011;392;48.838;2.322;2023-02-28T12:02:25;8.80;;;8.00;;
819;SDS011;392;48.838;2.322;2023-02-28T12:05:01;9.63;;;8.83;;
819;SDS011;392;48.838;2.322;2023-02-28T12:07:49;7.87;;;7.17;;
819;SDS011;392;48.838;2.322;2023-02-28T12:10:32;9.33;;;8.63;;
819;SDS011;392;48.838;2.322;2023-02-28T12:13:12;8.50;;;7.90;;
819;SDS011;392;48.838;2.322;2023-02-28T12:15:57;8.23;;;7.63;;
819;SDS011;392;48.838;2.322;2023-02-28T12:18:53;8.30;;;7.60;;
819;SDS011;392;48.838;2.322;2023-02-28T12:21:44;8.47;;;7.70;;
819;SDS011;392;48.838;2.322;2023-02-28T12:24:29;7.70;;;7.10;;
819;SDS011;392;48.838;2.322;2023-02-28T12:27:29;8.80;;;8.10;;
819;SDS011;392;48.838;2.322;2023-02-28T12:30:02;8.57;;;7.77;;
819;SDS011;392;48.838;2.322;2023-02-28T12:32:41;8.37;;;7.67;;
819;SDS011;392;48.838;2.322;2023-02-28T12:35:12;8.20;;;7.50;;
819;SDS011;392;48.838;2.322;2023-02-28T12:37:45;8.23;;;7.53;;
819;SDS011;392;48.838;2.322;2023-02-28T12:40:19;8.77;;;7.97;;
819;SDS011;392;48.838;2.322;2023-02-28T12:42:50;8.43;;;7.50;;
819;SDS011;392;48.838;2.322;2023-02-28T12:45:22;8.23;;;7.50;;
819;SDS011;392;48.838;2.322;2023-02-28T12:47:52;7.70;;;7.10;;
819;SDS011;392;48.838;2.322;2023-02-28T12:50:24;7.60;;;7.00;;
819;SDS011;392;48.838;2.322;2023-02-28T12:52:56;8.43;;;7.73;;
819;SDS011;392;48.838;2.322;2023-02-28T12:55:30;7.53;;;6.93;;
819;SDS011;392;48.838;2.322;2023-02-28T12:58:08;7.90;;;7.20;;
819;SDS011;392;48.838;2.322;2023-02-28T13:00:46;8.10;;;7.40;;
819;SDS011;392;48.838;2.322;2023-02-28T13:03:41;8.33;;;7.60;;
819;SDS011;392;48.838;2.322;2023-02-28T13:06:43;7.73;;;7.13;;
819;SDS011;392;48.838;2.322;2023-02-28T13:09:37;8.80;;;8.10;;
819;SDS011;392;48.838;2.322;2023-02-28T13:12:12;7.40;;;6.80;;
819;SDS011;392;48.838;2.322;2023-02-28T13:14:43;7.30;;;6.80;;
819;SDS011;392;48.838;2.322;2023-02-28T13:17:11;9.10;;;8.30;;
819;SDS011;392;48.838;2.322;2023-02-28T13:19:44;7.87;;;7.17;;
819;SDS011;392;48.838;2.322;2023-02-28T13:22:36;8.27;;;7.60;;
819;SDS011;392;48.838;2.322;2023-02-28T13:35:15;7.70;;;7.10;;
819;SDS011;392;48.838;2.322;2023-02-28T13:44:09;8.10;;;7.50;;
819;SDS011;392;48.838;2.322;2023-02-28T13:49:55;7.83;;;7.23;;
819;SDS011;392;48.838;2.322;2023-02-28T13:52:48;8.00;;;7.30;;
819;SDS011;392;48.838;2.322;2023-02-28T13:55:29;8.00;;;7.33;;
819;SDS011;392;48.838;2.322;2023-02-28T13:58:09;7.87;;;7.27;;
819;SDS011;392;48.838;2.322;2023-02-28T14:04:08;6.80;;;6.20;;
819;SDS011;392;48.838;2.322;2023-02-28T14:06:56;7.23;;;6.53;;
819;SDS011;392;48.838;2.322;2023-02-28T14:09:25;6.20;;;5.80;;
819;SDS011;392;48.838;2.322;2023-02-28T14:11:57;6.93;;;6.33;;
819;SDS011;392;48.838;2.322;2023-02-28T14:15:03;6.77;;;6.17;;
819;SDS011;392;48.838;2.322;2023-02-28T14:18:11;7.87;;;7.10;;
819;SDS011;392;48.838;2.322;2023-02-28T14:20:45;7.37;;;6.77;;
819;SDS011;392;48.838;2.322;2023-02-28T14:23:19;6.60;;;6.10;;
819;SDS011;392;48.838;2.322;2023-02-28T14:26:00;7.10;;;6.40;;
819;SDS011;392;48.838;2.322;2023-02-28T14:28:45;6.87;;;6.37;;
819;SDS011;392;48.838;2.322;2023-02-28T14:31:28;6.93;;;6.33;;
819;SDS011;392;48.838;2.322;2023-02-28T14:34:04;7.60;;;7.00;;
819;SDS011;392;48.838;2.322;2023-02-28T14:36:47;7.10;;;6.57;;
819;SDS011;392;48.838;2.322;2023-02-28T14:39:19;7.00;;;6.40;;
819;SDS011;392;48.838;2.322;2023-02-28T14:41:49;6.97;;;6.47;;
819;SDS011;392;48.838;2.322;2023-02-28T14:44:18;7.30;;;6.70;;
819;SDS011;392;48.838;2.322;2023-02-28T14:46:49;7.97;;;7.27;;
819;SDS011;392;48.838;2.322;2023-02-28T14:49:20;7.73;;;7.00;;
819;SDS011;392;48.838;2.322;2023-02-28T14:52:00;7.30;;;6.80;;
819;SDS011;392;48.838;2.322;2023-02-28T14:54:36;7.93;;;7.33;;
819;SDS011;392;48.838;2.322;2023-02-28T14:57:04;7.00;;;6.40;;
819;SDS011;392;48.838;2.322;2023-02-28T14:59:33;7.40;;;6.80;;
819;SDS011;392;48.838;2.322;2023-02-28T15:02:14;6.97;;;6.47;;
819;SDS011;392;48.838;2.322;2023-02-28T15:04:53;7.57;;;6.97;;
819;SDS011;392;48.838;2.322;2023-02-28T15:07:22;7.70;;;7.20;;
819;SDS011;392;48.838;2.322;2023-02-28T15:10:08;7.30;;;6.70;;
819;SDS011;392;48.838;2.322;2023-02-28T15:12:39;8.03;;;7.27;;
819;SDS011;392;48.838;2.322;2023-02-28T15:15:14;8.43;;;7.73;;
819;SDS011;392;48.838;2.322;2023-02-28T15:17:44;7.30;;;6.80;;
819;SDS011;392;48.838;2.322;2023-02-28T15:20:15;7.77;;;7.10;;
819;SDS011;392;48.838;2.322;2023-02-28T15:22:43;7.23;;;6.73;;
819;SDS011;392;48.838;2.322;2023-02-28T15:25:17;7.90;;;7.20;;
819;SDS011;392;48.838;2.322;2023-02-28T15:27:48;7.10;;;6.50;;
819;SDS011;392;48.838;2.322;2023-02-28T15:30:21;7.20;;;6.60;;
819;SDS011;392;48.838;2.322;2023-02-28T15:33:02;7.27;;;6.67;;
819;SDS011;392;48.838;2.322;2023-02-28T15:35:45;6.33;;;5.93;;
819;SDS011;392;48.838;2.322;2023-02-28T15:38:15;6.90;;;6.30;;
819;SDS011;392;48.838;2.322;2023-02-28T15:40:51;6.60;;;6.20;;
819;SDS011;392;48.838;2.322;2023-02-28T15:43:24;6.70;;;6.10;;
819;SDS011;392;48.838;2.322;2023-02-28T15:45:55;7.50;;;6.80;;
819;SDS011;392;48.838;2.322;2023-02-28T15:48:26;7.00;;;6.50;;
819;SDS011;392;48.838;2.322;2023-02-28T15:50:56;7.13;;;6.63;;
819;SDS011;392;48.838;2.322;2023-02-28T15:53:30;7.53;;;6.93;;
819;SDS011;392;48.838;2.322;2023-02-28T15:56:03;6.93;;;6.50;;
819;SDS011;392;48.838;2.322;2023-02-28T15:58:34;7.33;;;6.73;;
819;SDS011;392;48.838;2.322;2023-02-28T16:01:07;7.20;;;6.70;;
819;SDS011;392;48.838;2.322;2023-02-28T16:03:46;7.50;;;6.90;;
819;SDS011;392;48.838;2.322;2023-02-28T16:06:33;7.60;;;6.90;;
819;SDS011;392;48.838;2.322;2023-02-28T16:09:08;6.93;;;6.30;;
819;SDS011;392;48.838;2.322;2023-02-28T16:11:41;6.82;;;6.22;;
819;SDS011;392;48.838;2.322;2023-02-28T16:14:12;6.60;;;6.00;;
819;SDS011;392;48.838;2.322;2023-02-28T16:16:43;6.90;;;6.40;;
819;SDS011;392;48.838;2.322;2023-02-28T16:19:12;7.90;;;6.60;;
819;SDS011;392;48.838;2.322;2023-02-28T16:21:40;6.80;;;6.30;;
819;SDS011;392;48.838;2.322;2023-02-28T16:24:08;7.10;;;6.50;;
819;SDS011;392;48.838;2.322;2023-02-28T16:26:35;6.33;;;5.83;;
819;SDS011;392;48.838;2.322;2023-02-28T16:29:06;6.60;;;6.10;;
819;SDS011;392;48.838;2.322;2023-02-28T16:31:38;6.60;;;6.00;;
819;SDS011;392;48.838;2.322;2023-02-28T16:34:05;6.33;;;5.93;;
819;SDS011;392;48.838;2.322;2023-02-28T16:36:33;6.75;;;6.25;;